CLX705 HKJK-ELLX
Flight info
| Callsign | CLX705 |
|---|---|
| Flight time | N/A |
| Altitude | 32000 |
| Route | NAKAT4B NAKAT UL433 NN UW325 SIPKI DCT BUN UG862 AMPER/N0502F340 UG862 DIR/N0497F360 UB730 DJA UM2 CIRTA DCT BUKID DCT GARPU DCT PIGOS DCT BARSO DCT IRMAR DCT KINES DCT VANAS DCT MOBLO DCT UBIMA/N0475F300 DCT GILIR DCT PENDU DCT IXILU DCT EPL G21 GIVOR |
| Aircraft | B744/H-SDE2E3FGHIJ4J5M1P2RWXYZ/LB2D1 |
Departure
| Time | 2026-05-04 16:31 |
|---|---|
| Airport | Jomo Kenyatta International Airport (HKJK) |
Arrival
| Time | N/A |
|---|---|
| Airport | Luxembourg-Findel International Airport (ELLX) |
| Time | Latitude | Longitude | Altitude | Speed | Heading |
|---|---|---|---|---|---|
| 2026-05-04 15:13 | -1.33268 | 36.91701 | 5342 ft | 0 kts | 144° |
| 2026-05-04 16:16 | -1.33260 | 36.91696 | 5341 ft | 2 kts | 144° |
| 2026-05-04 16:17 | -1.33234 | 36.91677 | 5341 ft | 2 kts | 144° |
| 2026-05-04 16:18 | -1.33206 | 36.91640 | 5341 ft | 2 kts | 90° |
| 2026-05-04 16:18 | -1.33209 | 36.91625 | 5341 ft | 1 kts | 66° |
| 2026-05-04 16:19 | -1.33210 | 36.91623 | 5341 ft | 0 kts | 64° |
| 2026-05-04 16:26 | -1.33114 | 36.91710 | 5341 ft | 5 kts | 50° |
| 2026-05-04 16:26 | -1.33050 | 36.91796 | 5341 ft | 7 kts | 53° |
| 2026-05-04 16:27 | -1.32974 | 36.91803 | 5341 ft | 6 kts | 325° |
| 2026-05-04 16:28 | -1.32874 | 36.91734 | 5341 ft | 6 kts | 325° |
| 2026-05-04 16:28 | -1.32784 | 36.91670 | 5341 ft | 5 kts | 324° |
| 2026-05-04 16:29 | -1.32542 | 36.91933 | 5341 ft | 73 kts | 54° |
| 2026-05-04 16:30 | -1.30888 | 36.94201 | 5478 ft | 209 kts | 54° |
| 2026-05-04 16:31 | -1.29108 | 36.96528 | 6766 ft | 213 kts | 54° |
| 2026-05-04 16:31 | -1.25796 | 37.00748 | 7693 ft | 260 kts | 53° |
| 2026-05-04 16:32 | -1.22569 | 37.04686 | 8311 ft | 291 kts | 52° |
| 2026-05-04 16:33 | -1.19894 | 37.07975 | 8985 ft | 314 kts | 53° |
| 2026-05-04 16:33 | -1.17106 | 37.11451 | 10132 ft | 325 kts | 52° |
| 2026-05-04 16:34 | -1.13527 | 37.14141 | 11355 ft | 334 kts | 17° |
| 2026-05-04 16:34 | -1.11226 | 37.14386 | 12013 ft | 335 kts | 356° |
| 2026-05-04 16:35 | -1.05980 | 37.10220 | 13624 ft | 353 kts | 290° |
| 2026-05-04 16:35 | -1.04602 | 37.02665 | 14777 ft | 383 kts | 278° |
| 2026-05-04 16:36 | -1.04242 | 36.99983 | 15026 ft | 398 kts | 277° |
| 2026-05-04 16:36 | -1.03574 | 36.94270 | 15379 ft | 429 kts | 277° |
| 2026-05-04 16:37 | -1.02861 | 36.88205 | 15971 ft | 449 kts | 277° |
| 2026-05-04 16:37 | -1.02445 | 36.85091 | 16398 ft | 456 kts | 277° |
| 2026-05-04 16:37 | -1.01672 | 36.78759 | 17375 ft | 464 kts | 277° |
| 2026-05-04 16:38 | -1.00851 | 36.72267 | 18251 ft | 473 kts | 277° |
| 2026-05-04 16:39 | -0.99593 | 36.62397 | 19551 ft | 484 kts | 277° |
| 2026-05-04 16:39 | -0.98742 | 36.55697 | 20370 ft | 491 kts | 277° |
| 2026-05-04 16:40 | -0.97877 | 36.48889 | 21149 ft | 498 kts | 277° |
| 2026-05-04 16:40 | -0.97000 | 36.41998 | 21905 ft | 504 kts | 277° |
| 2026-05-04 16:41 | -0.96111 | 36.35006 | 22600 ft | 511 kts | 277° |
| 2026-05-04 16:41 | -0.94751 | 36.24314 | 23588 ft | 520 kts | 277° |
| 2026-05-04 16:42 | -0.93376 | 36.13506 | 24658 ft | 525 kts | 277° |
| 2026-05-04 16:43 | -0.92449 | 36.06228 | 25206 ft | 531 kts | 277° |
| 2026-05-04 16:43 | -0.91518 | 35.98909 | 25957 ft | 532 kts | 277° |
| 2026-05-04 16:43 | -0.91051 | 35.95245 | 26297 ft | 533 kts | 277° |
| 2026-05-04 16:44 | -0.89169 | 35.80460 | 27627 ft | 535 kts | 277° |
| 2026-05-04 16:45 | -0.88234 | 35.73120 | 28404 ft | 533 kts | 277° |
| 2026-05-04 16:46 | -0.86838 | 35.62158 | 29552 ft | 530 kts | 277° |
| 2026-05-04 16:46 | -0.85911 | 35.54883 | 30303 ft | 528 kts | 277° |
| 2026-05-04 16:47 | -0.84987 | 35.47637 | 31040 ft | 526 kts | 277° |
| 2026-05-04 16:47 | -0.84066 | 35.40408 | 31701 ft | 525 kts | 277° |
| 2026-05-04 16:48 | -0.81641 | 35.29739 | 32096 ft | 524 kts | 287° |
| 2026-05-04 16:48 | -0.80541 | 35.26270 | 32093 ft | 524 kts | 289° |
| 2026-05-04 16:49 | -0.75694 | 35.12556 | 32142 ft | 525 kts | 289° |
| 2026-05-04 16:50 | -0.70878 | 34.98816 | 32132 ft | 524 kts | 289° |
| 2026-05-04 16:51 | -0.67257 | 34.88471 | 32124 ft | 525 kts | 289° |
| 2026-05-04 16:52 | -0.62448 | 34.74734 | 32116 ft | 525 kts | 289° |
| 2026-05-04 16:53 | -0.58837 | 34.64418 | 32085 ft | 526 kts | 289° |
| 2026-05-04 16:54 | -0.54570 | 34.50477 | 32084 ft | 526 kts | 285° |
| 2026-05-04 16:55 | -0.48819 | 34.29298 | 32082 ft | 527 kts | 285° |
| 2026-05-04 16:56 | -0.43988 | 34.11676 | 32081 ft | 527 kts | 285° |
| 2026-05-04 16:57 | -0.41090 | 34.01108 | 32080 ft | 527 kts | 285° |
| 2026-05-04 16:58 | -0.36671 | 33.87138 | 32080 ft | 526 kts | 289° |
| 2026-05-04 17:00 | -0.29717 | 33.66363 | 32074 ft | 526 kts | 289° |
| 2026-05-04 17:01 | -0.23946 | 33.49042 | 32075 ft | 526 kts | 289° |
| 2026-05-04 17:02 | -0.19556 | 33.35044 | 32076 ft | 526 kts | 288° |
| 2026-05-04 17:03 | -0.16311 | 33.24585 | 32077 ft | 526 kts | 288° |
| 2026-05-04 17:03 | -0.13064 | 33.14130 | 32078 ft | 526 kts | 288° |
| 2026-05-04 17:04 | -0.08718 | 33.00146 | 32078 ft | 527 kts | 288° |
| 2026-05-04 17:05 | -0.04380 | 32.86186 | 32079 ft | 527 kts | 288° |
| 2026-05-04 17:06 | -0.01128 | 32.75722 | 32081 ft | 526 kts | 288° |
| 2026-05-04 17:07 | 0.01771 | 32.66393 | 32081 ft | 526 kts | 288° |
| 2026-05-04 17:07 | 0.04302 | 32.58246 | 32082 ft | 526 kts | 288° |
| 2026-05-04 17:08 | 0.07571 | 32.47801 | 32075 ft | 526 kts | 291° |
| 2026-05-04 17:09 | 0.10914 | 32.41339 | 32084 ft | 525 kts | 303° |
| 2026-05-04 17:09 | 0.15014 | 32.35333 | 32082 ft | 523 kts | 307° |
| 2026-05-04 17:10 | 0.25322 | 32.20371 | 32081 ft | 522 kts | 306° |
| 2026-05-04 17:11 | 0.29409 | 32.14380 | 32081 ft | 522 kts | 306° |
| 2026-05-04 17:12 | 0.35539 | 32.05394 | 32079 ft | 522 kts | 306° |
| 2026-05-04 17:13 | 0.45737 | 31.90383 | 32078 ft | 522 kts | 306° |
| 2026-05-04 17:14 | 0.53907 | 31.78354 | 32058 ft | 522 kts | 306° |
| 2026-05-04 17:15 | 0.60016 | 31.69358 | 32052 ft | 522 kts | 306° |
| 2026-05-04 17:16 | 0.68157 | 31.57370 | 32048 ft | 522 kts | 305° |
| 2026-05-04 17:17 | 0.76348 | 31.45371 | 32041 ft | 521 kts | 306° |
| 2026-05-04 17:18 | 0.84508 | 31.33423 | 32035 ft | 521 kts | 305° |
| 2026-05-04 17:19 | 0.92697 | 31.21429 | 32028 ft | 521 kts | 305° |
| 2026-05-04 17:20 | 1.00853 | 31.09482 | 32024 ft | 521 kts | 305° |
| 2026-05-04 17:20 | 1.06964 | 31.00528 | 32021 ft | 521 kts | 305° |
| 2026-05-04 17:21 | 1.15112 | 30.88591 | 32008 ft | 521 kts | 305° |
| 2026-05-04 17:22 | 1.18526 | 30.83588 | 32004 ft | 520 kts | 305° |
| 2026-05-04 17:23 | 1.26663 | 30.71661 | 32002 ft | 520 kts | 305° |
| 2026-05-04 17:24 | 1.32808 | 30.62752 | 32002 ft | 520 kts | 306° |
| 2026-05-04 17:25 | 1.41109 | 30.50908 | 32001 ft | 519 kts | 305° |
| 2026-05-04 17:26 | 1.49367 | 30.39102 | 32001 ft | 519 kts | 305° |
| 2026-05-04 17:27 | 1.59739 | 30.24408 | 32004 ft | 518 kts | 308° |
| 2026-05-04 17:28 | 1.69263 | 30.13553 | 32004 ft | 518 kts | 311° |
| 2026-05-04 17:29 | 1.83502 | 29.97362 | 31987 ft | 517 kts | 311° |
| 2026-05-04 17:31 | 1.95379 | 29.83838 | 31988 ft | 517 kts | 312° |
| 2026-05-04 17:32 | 2.07403 | 29.70511 | 31989 ft | 517 kts | 312° |
| 2026-05-04 17:33 | 2.17022 | 29.59838 | 31989 ft | 518 kts | 312° |
| 2026-05-04 17:34 | 2.26643 | 29.49164 | 31989 ft | 516 kts | 312° |
| 2026-05-04 17:35 | 2.38699 | 29.35830 | 31988 ft | 517 kts | 312° |
| 2026-05-04 17:36 | 2.43517 | 29.30498 | 31989 ft | 517 kts | 312° |
| 2026-05-04 17:36 | 2.48328 | 29.25171 | 31987 ft | 517 kts | 312° |
| 2026-05-04 17:37 | 2.53137 | 29.19849 | 31987 ft | 516 kts | 312° |
| 2026-05-04 17:37 | 2.57971 | 29.14498 | 31986 ft | 515 kts | 312° |
| 2026-05-04 17:38 | 2.62769 | 29.09185 | 31985 ft | 516 kts | 313° |
| 2026-05-04 17:38 | 2.67574 | 29.03862 | 31984 ft | 516 kts | 313° |
| 2026-05-04 17:39 | 2.74784 | 28.95879 | 31982 ft | 516 kts | 313° |
| 2026-05-04 17:39 | 2.79584 | 28.90560 | 31981 ft | 516 kts | 313° |
| 2026-05-04 17:40 | 2.84385 | 28.85238 | 31980 ft | 516 kts | 313° |
| 2026-05-04 17:40 | 2.89217 | 28.79882 | 31979 ft | 516 kts | 313° |
| 2026-05-04 17:41 | 2.94021 | 28.74558 | 31978 ft | 516 kts | 313° |
| 2026-05-04 17:41 | 2.98831 | 28.69234 | 31976 ft | 517 kts | 313° |
| 2026-05-04 17:42 | 3.03640 | 28.63904 | 31975 ft | 516 kts | 313° |
| 2026-05-04 17:42 | 3.08444 | 28.58579 | 31964 ft | 516 kts | 313° |
| 2026-05-04 17:43 | 3.13246 | 28.53254 | 31962 ft | 516 kts | 313° |
| 2026-05-04 17:43 | 3.18082 | 28.47897 | 31982 ft | 516 kts | 313° |
| 2026-05-04 17:44 | 3.22884 | 28.42575 | 31984 ft | 516 kts | 313° |
| 2026-05-04 17:44 | 3.27686 | 28.37249 | 31982 ft | 516 kts | 313° |
| 2026-05-04 17:45 | 3.32487 | 28.31925 | 31980 ft | 515 kts | 313° |
| 2026-05-04 17:45 | 3.37278 | 28.26610 | 31979 ft | 515 kts | 313° |
| 2026-05-04 17:46 | 3.42068 | 28.21296 | 31978 ft | 515 kts | 313° |
| 2026-05-04 17:46 | 3.46860 | 28.15978 | 31977 ft | 516 kts | 313° |
| 2026-05-04 17:47 | 3.51686 | 28.10622 | 31975 ft | 516 kts | 313° |
| 2026-05-04 17:47 | 3.56486 | 28.05294 | 31973 ft | 516 kts | 313° |
| 2026-05-04 17:48 | 3.61282 | 27.99969 | 31972 ft | 515 kts | 313° |
| 2026-05-04 17:48 | 3.66072 | 27.94650 | 31971 ft | 515 kts | 313° |
| 2026-05-04 17:49 | 3.70865 | 27.89327 | 31970 ft | 515 kts | 313° |
| 2026-05-04 17:49 | 3.75656 | 27.84005 | 31968 ft | 515 kts | 313° |
| 2026-05-04 17:50 | 3.80447 | 27.78682 | 31967 ft | 515 kts | 313° |
| 2026-05-04 17:50 | 3.85271 | 27.73322 | 31966 ft | 515 kts | 313° |
| 2026-05-04 17:51 | 3.90062 | 27.67997 | 31965 ft | 515 kts | 313° |
| 2026-05-04 17:51 | 3.94848 | 27.62678 | 31963 ft | 515 kts | 313° |
| 2026-05-04 17:52 | 3.99636 | 27.57354 | 31962 ft | 515 kts | 313° |
| 2026-05-04 17:52 | 4.04423 | 27.52031 | 31961 ft | 515 kts | 313° |
| 2026-05-04 17:53 | 4.09210 | 27.46706 | 31960 ft | 515 kts | 313° |
| 2026-05-04 17:53 | 4.14024 | 27.41350 | 31959 ft | 514 kts | 313° |
| 2026-05-04 17:54 | 4.18800 | 27.36036 | 31958 ft | 514 kts | 313° |
| 2026-05-04 17:54 | 4.23581 | 27.30716 | 31957 ft | 514 kts | 313° |
| 2026-05-04 17:55 | 4.28359 | 27.25397 | 31956 ft | 514 kts | 313° |
| 2026-05-04 17:55 | 4.33137 | 27.20078 | 31955 ft | 514 kts | 313° |
| 2026-05-04 17:56 | 4.37916 | 27.14756 | 31954 ft | 514 kts | 313° |
| 2026-05-04 17:56 | 4.42692 | 27.09436 | 31954 ft | 514 kts | 313° |
| 2026-05-04 17:57 | 4.47497 | 27.04084 | 31953 ft | 514 kts | 313° |
| 2026-05-04 17:57 | 4.52271 | 26.98764 | 31952 ft | 514 kts | 313° |
| 2026-05-04 17:58 | 4.57051 | 26.93437 | 31951 ft | 514 kts | 313° |
| 2026-05-04 17:58 | 4.61825 | 26.88115 | 31950 ft | 514 kts | 313° |
| 2026-05-04 17:59 | 4.66594 | 26.82797 | 31949 ft | 514 kts | 313° |